createdAt,value
2023-04-01T00:00:01.791Z,6.70
2023-04-01T00:03:14.240Z,5.57
2023-04-01T00:06:18.914Z,3.70
2023-04-01T00:09:21.543Z,4.93
2023-04-01T00:12:26.060Z,9.10
2023-04-01T00:15:28.291Z,5.03
2023-04-01T00:18:31.551Z,6.53
2023-04-01T00:21:34.121Z,4.35
2023-04-01T00:24:36.691Z,5.53
2023-04-01T00:27:38.986Z,6.40
2023-04-01T00:30:41.766Z,6.28
2023-04-01T00:33:44.250Z,5.85
2023-04-01T00:36:46.734Z,6.80
2023-04-01T00:39:49.349Z,5.18
2023-04-01T00:42:52.298Z,6.65
2023-04-01T00:45:54.498Z,6.30
2023-04-01T00:48:57.583Z,7.85
2023-04-01T00:52:02.495Z,7.30
2023-04-01T00:55:08.350Z,6.55
2023-04-01T00:58:16.781Z,7.25
2023-04-01T01:01:23.007Z,6.32
2023-04-01T01:04:31.300Z,4.87
2023-04-01T01:07:42.933Z,8.73
2023-04-01T01:10:50.551Z,7.90
2023-04-01T01:14:44.190Z,5.80
2023-04-01T01:17:46.475Z,6.43
2023-04-01T01:21:07.779Z,5.40
2023-04-01T01:24:43.237Z,5.22
2023-04-01T01:27:55.747Z,6.10
2023-04-01T01:31:17.071Z,5.45
2023-04-01T01:34:53.842Z,5.05
2023-04-01T01:38:00.923Z,7.18
2023-04-01T01:41:06.416Z,5.57
2023-04-01T01:44:12.161Z,6.80
2023-04-01T01:47:16.389Z,5.03
2023-04-01T01:50:20.529Z,7.22
2023-04-01T01:53:23.147Z,7.62
2023-04-01T01:56:29.553Z,5.72
2023-04-01T01:59:34.206Z,6.20
2023-04-01T02:02:36.475Z,7.15
2023-04-01T02:05:40.653Z,6.72
2023-04-01T02:12:00.466Z,5.90
2023-04-01T02:15:13.418Z,4.87
2023-04-01T02:18:17.351Z,6.45
2023-04-01T02:21:23.194Z,8.15
2023-04-01T02:24:29.068Z,6.82
2023-04-01T02:27:31.948Z,4.78
2023-04-01T02:30:37.650Z,5.32
2023-04-01T02:33:40.939Z,7.50
2023-04-01T02:36:43.739Z,6.78
2023-04-01T02:39:46.295Z,5.70
2023-04-01T02:42:48.534Z,4.10
2023-04-01T02:45:51.329Z,4.05
2023-04-01T02:48:54.642Z,3.53
2023-04-01T02:51:57.196Z,4.00
2023-04-01T02:54:59.395Z,2.10
2023-04-01T02:58:02.678Z,4.53
2023-04-01T03:01:05.316Z,4.35
2023-04-01T03:04:07.902Z,3.53
2023-04-01T03:07:11.240Z,4.05
2023-04-01T03:13:15.760Z,5.18
2023-04-01T03:16:19.034Z,2.95
2023-04-01T03:19:21.301Z,4.85
2023-04-01T03:22:24.022Z,3.27
2023-04-01T03:25:26.233Z,3.70
2023-04-01T03:28:28.726Z,2.78
2023-04-01T03:31:31.079Z,3.10
2023-04-01T03:34:33.862Z,2.90
2023-04-01T03:37:36.299Z,2.75
2023-04-01T03:40:42.880Z,2.90
2023-04-01T03:43:45.622Z,2.17
2023-04-01T03:46:48.164Z,4.00
2023-04-01T03:49:50.904Z,3.60
2023-04-01T03:52:53.464Z,3.80
2023-04-01T03:55:56.624Z,4.15
2023-04-01T03:58:59.467Z,3.12
2023-04-01T04:02:01.773Z,3.72
2023-04-01T04:05:04.699Z,3.95
2023-04-01T04:08:09.203Z,2.62
2023-04-01T04:11:11.823Z,3.17
2023-04-01T04:14:14.476Z,3.78
2023-04-01T04:17:17.445Z,2.10
2023-04-01T04:20:19.795Z,3.45
2023-04-01T04:23:22.614Z,5.65
2023-04-01T04:26:24.895Z,4.22
2023-04-01T04:29:27.881Z,3.58
2023-04-01T04:32:31.247Z,3.87
2023-04-01T04:35:34.345Z,2.92
2023-04-01T04:38:37.014Z,2.47
2023-04-01T04:41:39.854Z,3.33
2023-04-01T04:44:42.094Z,3.45
2023-04-01T04:47:44.589Z,3.45
2023-04-01T04:50:51.865Z,3.37
2023-04-01T04:53:54.788Z,4.53
2023-04-01T04:56:58.180Z,3.42
2023-04-01T05:00:01.211Z,2.35
2023-04-01T05:03:04.706Z,3.10
2023-04-01T05:06:10.280Z,3.17
2023-04-01T05:09:12.746Z,4.72
2023-04-01T05:12:15.903Z,4.22
2023-04-01T05:15:20.451Z,2.15
2023-04-01T05:18:23.489Z,4.78
2023-04-01T05:21:25.694Z,2.50
2023-04-01T05:24:28.688Z,2.12
2023-04-01T05:27:31.072Z,2.83
2023-04-01T05:30:33.530Z,2.80
2023-04-01T05:33:36.578Z,2.80
2023-04-01T05:36:40.804Z,4.95
2023-04-01T05:39:43.238Z,2.35
2023-04-01T05:42:45.846Z,1.98
2023-04-01T05:45:49.612Z,1.92
2023-04-01T05:48:55.404Z,2.65
2023-04-01T05:51:59.114Z,5.15
2023-04-01T05:55:01.798Z,4.82
2023-04-01T05:58:04.305Z,2.97
2023-04-01T06:01:14.093Z,3.37
2023-04-01T06:04:19.365Z,3.30
2023-04-01T06:07:21.615Z,2.30
2023-04-01T06:10:40.730Z,2.42
2023-04-01T06:14:19.548Z,6.72
2023-04-01T06:18:03.483Z,3.97
2023-04-01T06:21:21.477Z,2.00
2023-04-01T06:24:31.982Z,2.47
2023-04-01T06:28:03.452Z,4.03
2023-04-01T06:31:50.583Z,2.83
2023-04-01T06:35:12.262Z,2.75
2023-04-01T06:38:29.520Z,2.62
2023-04-01T06:41:51.762Z,2.15
2023-04-01T06:45:07.923Z,2.15
2023-04-01T06:48:46.400Z,2.55
2023-04-01T06:52:03.590Z,2.47
2023-04-01T06:55:29.286Z,2.62
2023-04-01T06:58:42.674Z,2.78
2023-04-01T07:02:19.324Z,2.05
2023-04-01T07:05:23.970Z,2.95
2023-04-01T07:08:30.519Z,2.47
2023-04-01T07:11:38.143Z,2.87
2023-04-01T07:14:44.468Z,1.52
2023-04-01T07:17:53.854Z,3.37
2023-04-01T07:20:56.537Z,4.85
2023-04-01T07:24:05.999Z,1.83
2023-04-01T07:27:14.319Z,3.08
2023-04-01T07:30:22.799Z,2.72
2023-04-01T07:33:28.468Z,2.80
2023-04-01T07:36:49.679Z,2.67
2023-04-01T07:40:21.849Z,3.30
2023-04-01T07:43:53.760Z,1.87
2023-04-01T07:47:18.412Z,2.67
2023-04-01T07:50:28.646Z,2.15
2023-04-01T07:53:58.231Z,2.08
2023-04-01T07:57:24.095Z,2.08
2023-04-01T08:00:51.053Z,2.45
2023-04-01T08:04:24.275Z,2.25
2023-04-01T08:07:43.252Z,0.95
2023-04-01T08:11:03.855Z,2.20
2023-04-01T08:14:57.019Z,1.95
2023-04-01T08:18:30.762Z,2.97
2023-04-01T08:21:52.206Z,5.37
2023-04-01T08:25:00.824Z,2.17
2023-04-01T08:28:24.590Z,3.50
2023-04-01T08:31:54.698Z,3.42
2023-04-01T08:35:16.429Z,1.95
2023-04-01T08:38:38.940Z,3.03
2023-04-01T08:41:57.495Z,2.75
2023-04-01T08:45:14.271Z,3.62
2023-04-01T08:48:31.261Z,2.58
2023-04-01T08:51:56.925Z,2.30
2023-04-01T08:55:02.397Z,1.85
2023-04-01T08:58:08.792Z,4.03
2023-04-01T09:01:14.829Z,3.87
2023-04-01T09:05:11.586Z,2.25
2023-04-01T09:08:20.264Z,3.95
2023-04-01T09:11:53.089Z,2.05
2023-04-01T09:15:32.663Z,4.65
2023-04-01T09:19:28.052Z,2.03
2023-04-01T09:23:07.789Z,1.83
2023-04-01T09:26:29.333Z,3.22
2023-04-01T09:30:01.926Z,4.85
2023-04-01T09:33:44.160Z,2.47
2023-04-01T09:36:52.000Z,3.30
2023-04-01T09:40:27.340Z,3.12
2023-04-01T09:43:45.988Z,3.00
2023-04-01T09:47:28.945Z,4.05
2023-04-01T09:50:45.241Z,3.53
2023-04-01T09:53:54.643Z,4.75
2023-04-01T09:57:11.352Z,2.40
2023-04-01T10:00:20.543Z,3.65
2023-04-01T10:04:01.453Z,5.15
2023-04-01T10:07:30.014Z,3.47
2023-04-01T10:10:32.412Z,4.78
2023-04-01T10:13:47.040Z,2.95
2023-04-01T10:17:26.933Z,4.12
2023-04-01T10:20:54.439Z,4.60
2023-04-01T10:24:13.337Z,2.75
2023-04-01T10:27:37.494Z,3.33
2023-04-01T10:31:11.252Z,3.92
2023-04-01T10:34:56.117Z,4.15
2023-04-01T10:38:46.844Z,5.03
2023-04-01T10:42:30.817Z,4.93
2023-04-01T10:45:47.802Z,4.20
2023-04-01T10:49:06.407Z,3.58
2023-04-01T10:52:43.850Z,5.40
2023-04-01T10:56:10.337Z,5.65
2023-04-01T10:59:21.946Z,2.80
2023-04-01T11:02:49.853Z,6.18
2023-04-01T11:06:25.398Z,3.78
2023-04-01T11:10:05.592Z,2.28
2023-04-01T11:13:25.628Z,4.40
2023-04-01T11:16:56.016Z,6.15
2023-04-01T11:20:20.112Z,2.33
2023-04-01T11:23:55.061Z,4.32
2023-04-01T11:27:16.889Z,2.62
2023-04-01T11:31:14.107Z,2.95
2023-04-01T11:34:35.226Z,3.53
2023-04-01T11:37:50.216Z,3.05
2023-04-01T11:41:03.259Z,1.98
2023-04-01T11:44:19.022Z,4.00
2023-04-01T11:47:36.739Z,3.42
2023-04-01T11:50:47.807Z,2.50
2023-04-01T11:54:03.291Z,2.30
2023-04-01T11:57:14.030Z,2.83
2023-04-01T12:00:41.551Z,2.50
2023-04-01T12:04:12.155Z,3.42
2023-04-01T12:07:26.188Z,2.45
2023-04-01T12:11:09.473Z,1.83
2023-04-01T12:14:32.480Z,3.80
2023-04-01T12:17:50.064Z,3.87
2023-04-01T12:21:12.223Z,2.62
2023-04-01T12:24:37.528Z,3.45
2023-04-01T12:28:07.973Z,1.73
2023-04-01T12:31:47.343Z,4.18
2023-04-01T12:35:07.514Z,4.30
2023-04-01T12:38:29.480Z,2.53
2023-04-01T12:42:13.432Z,2.40
2023-04-01T12:45:33.038Z,1.80
2023-04-01T12:49:06.478Z,4.10
2023-04-01T12:52:36.499Z,5.12
2023-04-01T12:55:44.177Z,2.47
2023-04-01T12:59:08.840Z,3.95
2023-04-01T13:05:29.447Z,4.78
2023-04-01T13:08:56.489Z,3.20
2023-04-01T13:12:24.055Z,3.22
2023-04-01T13:15:34.960Z,3.78
2023-04-01T13:18:40.648Z,5.25
2023-04-01T13:21:59.706Z,3.00
2023-04-01T13:25:28.060Z,4.35
2023-04-01T13:28:58.384Z,3.50
2023-04-01T13:32:16.263Z,3.53
2023-04-01T13:35:25.978Z,3.65
2023-04-01T13:38:47.034Z,1.83
2023-04-01T13:42:07.378Z,3.90
2023-04-01T13:45:28.072Z,3.10
2023-04-01T13:49:04.356Z,1.30
2023-04-01T13:52:31.004Z,4.75
2023-04-01T13:55:36.384Z,1.75
2023-04-01T13:58:47.042Z,2.83
2023-04-01T14:02:06.364Z,1.45
2023-04-01T14:05:43.176Z,2.62
2023-04-01T14:09:00.892Z,2.10
2023-04-01T14:12:21.826Z,5.53
2023-04-01T14:15:39.757Z,2.30
2023-04-01T14:19:09.060Z,2.58
2023-04-01T14:22:37.617Z,2.17
2023-04-01T14:25:46.363Z,5.93
2023-04-01T14:29:37.388Z,1.23
2023-04-01T14:33:17.755Z,1.87
2023-04-01T14:36:22.657Z,3.37
2023-04-01T14:39:43.959Z,1.65
2023-04-01T14:43:07.737Z,2.47
2023-04-01T14:49:52.669Z,1.40
2023-04-01T14:53:01.075Z,2.45
2023-04-01T14:56:05.692Z,1.30
2023-04-01T14:59:11.611Z,1.92
2023-04-01T15:02:42.693Z,2.08
2023-04-01T15:05:56.455Z,5.12
2023-04-01T15:09:32.821Z,2.83
2023-04-01T15:13:01.274Z,5.00
2023-04-01T15:16:09.205Z,3.45
2023-04-01T15:19:30.845Z,3.78
2023-04-01T15:22:50.863Z,4.22
2023-04-01T15:26:31.421Z,5.90
2023-04-01T15:30:24.811Z,2.95
2023-04-01T15:33:56.420Z,5.05
2023-04-01T15:37:04.586Z,3.20
2023-04-01T15:40:24.051Z,3.78
2023-04-01T15:43:55.791Z,5.53
2023-04-01T15:46:59.122Z,3.35
2023-04-01T15:50:19.806Z,3.12
2023-04-01T15:53:31.697Z,2.40
2023-04-01T15:56:58.944Z,2.50
2023-04-01T16:00:27.383Z,4.70
2023-04-01T16:03:44.480Z,2.33
2023-04-01T16:07:03.532Z,3.47
2023-04-01T16:10:36.799Z,1.58
2023-04-01T16:14:05.019Z,2.67
2023-04-01T16:17:52.557Z,5.50
2023-04-01T16:21:21.929Z,0.80
2023-04-01T16:24:24.436Z,2.55
2023-04-01T16:27:37.414Z,1.73
2023-04-01T16:30:47.954Z,4.32
2023-04-01T16:33:52.928Z,1.95
2023-04-01T16:37:20.731Z,1.27
2023-04-01T16:40:46.020Z,1.85
2023-04-01T16:44:01.200Z,1.95
2023-04-01T16:47:16.779Z,2.45
2023-04-01T16:50:19.256Z,2.75
2023-04-01T16:53:54.060Z,1.45
2023-04-01T16:57:05.610Z,1.02
2023-04-01T17:00:21.158Z,1.92
2023-04-01T17:03:33.074Z,1.48
2023-04-01T17:06:54.701Z,2.25
2023-04-01T17:10:15.386Z,1.62
2023-04-01T17:13:36.162Z,2.45
2023-04-01T17:17:06.817Z,1.95
2023-04-01T17:20:37.725Z,2.67
2023-04-01T17:24:01.573Z,2.28
2023-04-01T17:27:49.623Z,3.85
2023-04-01T17:31:01.569Z,2.87
2023-04-01T17:34:22.500Z,2.65
2023-04-01T17:37:33.017Z,1.27
2023-04-01T17:41:16.535Z,3.62
2023-04-01T17:44:50.321Z,3.10
2023-04-01T17:48:23.776Z,1.90
2023-04-01T17:51:41.811Z,4.68
2023-04-01T17:54:52.256Z,2.55
2023-04-01T17:58:18.964Z,4.18
2023-04-01T18:01:41.845Z,3.72
2023-04-01T18:04:56.595Z,5.20
2023-04-01T18:08:40.333Z,5.03
2023-04-01T18:12:28.193Z,3.95
2023-04-01T18:16:13.845Z,5.12
2023-04-01T18:19:28.591Z,2.80
2023-04-01T18:22:39.451Z,3.83
2023-04-01T18:25:49.040Z,4.87
2023-04-01T18:28:59.580Z,4.25
2023-04-01T18:32:12.077Z,3.90
2023-04-01T18:35:29.751Z,3.42
2023-04-01T18:38:37.454Z,5.32
2023-04-01T18:42:00.953Z,5.37
2023-04-01T18:45:35.547Z,4.15
2023-04-01T18:52:17.310Z,5.37
2023-04-01T18:55:23.908Z,6.78
2023-04-01T18:58:51.561Z,4.55
2023-04-01T19:02:14.908Z,5.50
2023-04-01T19:05:24.226Z,3.97
2023-04-01T19:08:37.368Z,5.07
2023-04-01T19:11:57.117Z,4.68
2023-04-01T19:15:21.343Z,3.50
2023-04-01T19:18:36.662Z,3.55
2023-04-01T19:21:56.462Z,3.37
2023-04-01T19:25:18.063Z,3.65
2023-04-01T19:28:54.438Z,3.53
2023-04-01T19:32:16.042Z,4.22
2023-04-01T19:35:30.254Z,4.85
2023-04-01T19:38:40.274Z,3.30
2023-04-01T19:42:08.370Z,3.30
2023-04-01T19:45:36.285Z,6.15
2023-04-01T19:48:57.297Z,5.53
2023-04-01T19:52:30.593Z,6.62
2023-04-01T19:55:51.407Z,5.57
2023-04-01T19:59:14.432Z,7.15
2023-04-01T20:02:52.239Z,7.40
2023-04-01T20:06:38.473Z,9.45
2023-04-01T20:09:59.581Z,8.18
2023-04-01T20:13:11.424Z,9.07
2023-04-01T20:16:16.368Z,8.30
2023-04-01T20:19:28.907Z,9.43
2023-04-01T20:23:03.103Z,8.27
2023-04-01T20:26:11.386Z,7.55
2023-04-01T20:29:22.797Z,9.05
2023-04-01T20:33:10.672Z,7.75
2023-04-01T20:36:35.717Z,9.90
2023-04-01T20:40:00.124Z,8.65
2023-04-01T20:46:31.011Z,9.55
2023-04-01T20:49:46.980Z,9.55
2023-04-01T20:53:12.632Z,11.35
2023-04-01T20:56:17.750Z,8.20
2023-04-01T20:59:26.929Z,10.35
2023-04-01T21:03:00.510Z,9.05
2023-04-01T21:06:28.898Z,10.60
2023-04-01T21:09:42.953Z,9.25
2023-04-01T21:13:08.454Z,10.48
2023-04-01T21:16:50.456Z,11.45
2023-04-01T21:20:10.965Z,10.40
2023-04-01T21:23:30.242Z,12.98
2023-04-01T21:26:40.266Z,8.82
2023-04-01T21:30:20.040Z,10.45
2023-04-01T21:33:37.300Z,9.35
2023-04-01T21:37:01.594Z,9.52
2023-04-01T21:40:25.520Z,8.65
2023-04-01T21:43:47.909Z,9.45
2023-04-01T21:47:21.590Z,8.05
2023-04-01T21:50:23.717Z,9.27
2023-04-01T21:53:56.557Z,7.20
2023-04-01T21:57:26.745Z,6.00
2023-04-01T22:00:32.400Z,7.82
2023-04-01T22:03:59.679Z,6.75
2023-04-01T22:07:04.949Z,7.50
2023-04-01T22:10:19.444Z,5.90
2023-04-01T22:13:31.956Z,6.25
2023-04-01T22:16:49.512Z,8.68
2023-04-01T22:20:06.453Z,6.68
2023-04-01T22:23:11.861Z,6.12
2023-04-01T22:26:39.510Z,6.25
2023-04-01T22:30:04.065Z,5.40
2023-04-01T22:33:21.489Z,5.90
2023-04-01T22:36:56.244Z,5.95
2023-04-01T22:39:58.325Z,6.12
2023-04-01T22:43:07.493Z,6.87
2023-04-01T22:46:38.155Z,7.35
2023-04-01T22:49:47.786Z,3.95
2023-04-01T22:52:59.869Z,4.15
2023-04-01T22:56:08.428Z,5.40
2023-04-01T22:59:25.131Z,3.53
2023-04-01T23:02:36.122Z,5.70
2023-04-01T23:05:47.069Z,3.58
2023-04-01T23:08:57.735Z,1.95
2023-04-01T23:12:05.626Z,1.35
2023-04-01T23:15:15.389Z,2.75
2023-04-01T23:18:36.401Z,3.08
2023-04-01T23:21:49.409Z,1.60
2023-04-01T23:24:58.812Z,1.90
2023-04-01T23:28:16.858Z,1.58
2023-04-01T23:31:38.379Z,1.73
2023-04-01T23:34:46.770Z,0.70
2023-04-01T23:37:48.943Z,2.17
2023-04-01T23:40:54.622Z,1.67
2023-04-01T23:44:02.532Z,1.55
2023-04-01T23:47:06.932Z,1.42
2023-04-01T23:50:19.604Z,3.70
2023-04-01T23:53:26.195Z,3.03
2023-04-01T23:56:49.423Z,2.65
